Time;durP1;ratioP1;P1;durP2;ratioP2;P2;SDS_P1;SDS_P2;PMS_P1;PMS_P2;Temp;Humidity;BMP_temperature;BMP_pressure;BME280_temperature;BME280_humidity;BME280_pressure;Samples;Min_cycle;Max_cycle;Signal;HPM_P1;HPM_P2
2022/07/03 00:00:19;;;;;;;1.70;1.60;;;;;;;;;;4990546;28;20318;-83
2022/07/03 00:02:44;;;;;;;1.90;1.80;;;;;;;;;;4990935;28;20167;-83
2022/07/03 00:05:10;;;;;;;1.70;1.60;;;;;;;;;;4989174;28;20182;-83
2022/07/03 00:07:36;;;;;;;2.10;2.00;;;;;;;;;;4993947;28;20180;-82
2022/07/03 00:10:01;;;;;;;1.60;1.50;;;;;;;;;;4989323;28;20198;-84
2022/07/03 00:12:27;;;;;;;1.70;1.60;;;;;;;;;;4987588;28;20175;-84
2022/07/03 00:14:52;;;;;;;1.50;1.40;;;;;;;;;;4992989;28;20213;-84
2022/07/03 00:17:17;;;;;;;1.73;1.63;;;;;;;;;;4993172;28;20185;-83
2022/07/03 00:19:45;;;;;;;1.83;1.47;;;;;;;;;;4989575;28;20770;-84
2022/07/03 00:22:12;;;;;;;2.20;1.40;;;;;;;;;;4987200;28;20173;-84
2022/07/03 00:24:51;;;;;;;1.60;1.50;;;;;;;;;;4986550;28;20207;-84
2022/07/03 00:27:18;;;;;;;1.67;1.57;;;;;;;;;;4992975;28;20278;-85
2022/07/03 00:29:44;;;;;;;1.60;1.50;;;;;;;;;;4989631;28;20190;-84
2022/07/03 00:32:10;;;;;;;1.47;1.37;;;;;;;;;;4986059;28;20227;-84
2022/07/03 00:34:37;;;;;;;1.50;1.40;;;;;;;;;;4991105;28;20222;-84
2022/07/03 00:37:05;;;;;;;9.50;2.03;;;;;;;;;;4992276;28;20228;-84
2022/07/03 00:39:31;;;;;;;1.63;1.47;;;;;;;;;;4990227;28;20184;-84
2022/07/03 00:42:00;;;;;;;1.67;1.57;;;;;;;;;;4988877;28;20219;-84
2022/07/03 00:44:27;;;;;;;1.50;1.40;;;;;;;;;;4991315;28;20179;-85
2022/07/03 00:46:54;;;;;;;1.80;1.50;;;;;;;;;;4993806;28;20514;-83
2022/07/03 00:49:19;;;;;;;4.30;1.70;;;;;;;;;;4985568;28;20195;-85
2022/07/03 00:51:49;;;;;;;2.63;1.50;;;;;;;;;;4989781;28;20275;-84
2022/07/03 00:54:19;;;;;;;1.80;1.67;;;;;;;;;;4989296;28;20566;-84
2022/07/03 00:56:49;;;;;;;1.67;1.43;;;;;;;;;;4990956;28;20187;-84
2022/07/03 00:59:14;;;;;;;1.73;1.40;;;;;;;;;;4988888;28;20191;-83
2022/07/03 01:01:39;;;;;;;1.60;1.50;;;;;;;;;;4990131;28;20210;-82
2022/07/03 01:04:14;;;;;;;1.80;1.37;;;;;;;;;;4988147;28;20246;-84
2022/07/03 01:06:43;;;;;;;2.33;1.50;;;;;;;;;;4986388;28;20314;-84
2022/07/03 01:09:08;;;;;;;1.43;1.33;;;;;;;;;;4989037;28;20198;-83
2022/07/03 01:11:41;;;;;;;1.80;1.60;;;;;;;;;;4991403;28;20190;-84
2022/07/03 01:14:15;;;;;;;1.53;1.43;;;;;;;;;;4992103;28;20215;-84
2022/07/03 01:16:44;;;;;;;1.57;1.47;;;;;;;;;;5005923;28;20186;-84
2022/07/03 01:19:30;;;;;;;1.77;1.50;;;;;;;;;;4985331;28;20219;-84
2022/07/03 01:21:55;;;;;;;1.40;1.33;;;;;;;;;;4988551;28;20188;-83
2022/07/03 01:24:21;;;;;;;1.50;1.40;;;;;;;;;;4991371;28;20183;-83
2022/07/03 01:26:46;;;;;;;1.70;1.60;;;;;;;;;;4990340;28;20186;-84
2022/07/03 01:29:22;;;;;;;1.57;1.47;;;;;;;;;;4992909;28;20266;-84
2022/07/03 01:31:49;;;;;;;2.87;1.40;;;;;;;;;;4994134;28;20218;-84
2022/07/03 01:34:16;;;;;;;1.50;1.40;;;;;;;;;;4992038;28;20290;-84
2022/07/03 01:36:43;;;;;;;1.60;1.50;;;;;;;;;;4994913;28;20210;-84
2022/07/03 01:39:10;;;;;;;1.60;1.50;;;;;;;;;;4991315;28;20181;-84
2022/07/03 01:41:36;;;;;;;1.77;1.67;;;;;;;;;;4994801;28;20179;-84
2022/07/03 01:44:04;;;;;;;1.63;1.50;;;;;;;;;;4995338;28;20190;-84
2022/07/03 01:46:30;;;;;;;2.50;1.60;;;;;;;;;;4990219;28;20215;-84
2022/07/03 01:48:56;;;;;;;2.17;1.63;;;;;;;;;;4992695;28;20192;-84
2022/07/03 01:51:25;;;;;;;3.57;1.70;;;;;;;;;;4989241;28;20186;-83
2022/07/03 01:53:50;;;;;;;1.80;1.70;;;;;;;;;;4992034;28;20249;-84
2022/07/03 01:56:17;;;;;;;1.87;1.70;;;;;;;;;;4989027;28;20179;-84
2022/07/03 01:58:42;;;;;;;1.57;1.47;;;;;;;;;;4993154;28;20510;-83
2022/07/03 02:01:19;;;;;;;2.17;1.57;;;;;;;;;;4992301;28;20184;-84
2022/07/03 02:04:11;;;;;;;1.80;1.60;;;;;;;;;;4990407;28;20187;-83
2022/07/03 02:06:41;;;;;;;1.87;1.60;;;;;;;;;;4957292;28;20290;-84
2022/07/03 02:09:07;;;;;;;2.10;1.50;;;;;;;;;;4992387;28;20178;-83
2022/07/03 02:11:35;;;;;;;1.70;1.50;;;;;;;;;;4989958;28;20182;-84
2022/07/03 02:14:09;;;;;;;2.17;1.43;;;;;;;;;;4994387;28;20262;-83
2022/07/03 02:16:42;;;;;;;1.97;1.50;;;;;;;;;;5009020;28;20232;-84
2022/07/03 02:19:10;;;;;;;1.83;1.73;;;;;;;;;;4992372;28;20202;-84
2022/07/03 02:21:40;;;;;;;1.60;1.50;;;;;;;;;;4992170;28;20185;-84
2022/07/03 02:24:18;;;;;;;2.23;1.50;;;;;;;;;;4991666;28;20183;-84
2022/07/03 02:26:51;;;;;;;1.67;1.57;;;;;;;;;;4991123;28;20185;-83
2022/07/03 02:29:17;;;;;;;1.73;1.60;;;;;;;;;;5008129;28;20197;-83
2022/07/03 02:31:44;;;;;;;1.80;1.70;;;;;;;;;;4990847;28;20230;-84
2022/07/03 02:34:13;;;;;;;1.63;1.53;;;;;;;;;;4990380;28;20218;-84
2022/07/03 02:36:40;;;;;;;2.50;1.60;;;;;;;;;;4990760;28;20269;-84
2022/07/03 02:39:08;;;;;;;1.37;1.27;;;;;;;;;;4987891;28;20227;-84
2022/07/03 02:41:45;;;;;;;1.73;1.53;;;;;;;;;;4990095;28;20180;-83
2022/07/03 02:44:18;;;;;;;1.63;1.47;;;;;;;;;;4988438;28;20188;-85
2022/07/03 02:46:54;;;;;;;2.23;1.40;;;;;;;;;;4992020;28;20217;-84
2022/07/03 02:49:19;;;;;;;1.87;1.40;;;;;;;;;;4991800;28;20216;-84
2022/07/03 02:51:48;;;;;;;1.50;1.40;;;;;;;;;;5008695;28;20183;-84
2022/07/03 02:54:14;;;;;;;1.60;1.50;;;;;;;;;;4988906;28;20214;-83
2022/07/03 02:57:12;;;;;;;1.50;1.40;;;;;;;;;;4991611;28;20182;-84
2022/07/03 02:59:46;;;;;;;1.70;1.60;;;;;;;;;;4935929;28;20204;-84
2022/07/03 03:02:22;;;;;;;1.53;1.43;;;;;;;;;;4988380;28;20193;-84
2022/07/03 03:04:59;;;;;;;1.60;1.50;;;;;;;;;;4993945;28;20265;-83
2022/07/03 03:07:47;;;;;;;1.70;1.60;;;;;;;;;;4987885;28;20817;-83
2022/07/03 03:10:14;;;;;;;1.60;1.50;;;;;;;;;;4956908;28;20234;-84
2022/07/03 03:12:41;;;;;;;1.40;1.30;;;;;;;;;;4991793;28;20217;-83
2022/07/03 03:15:07;;;;;;;3.83;1.57;;;;;;;;;;4988899;28;20268;-84
2022/07/03 03:17:39;;;;;;;2.20;1.70;;;;;;;;;;4988124;28;20189;-83
2022/07/03 03:20:05;;;;;;;1.43;1.33;;;;;;;;;;4985625;28;20219;-84
2022/07/03 03:22:50;;;;;;;1.70;1.60;;;;;;;;;;4988641;28;20209;-83
2022/07/03 03:25:15;;;;;;;1.73;1.63;;;;;;;;;;4991149;28;20184;-84
2022/07/03 03:27:41;;;;;;;1.70;1.60;;;;;;;;;;4991083;28;20189;-83
2022/07/03 03:30:06;;;;;;;2.20;2.00;;;;;;;;;;4990201;28;20180;-83
2022/07/03 03:32:33;;;;;;;1.53;1.43;;;;;;;;;;4989504;28;20231;-83
2022/07/03 03:34:59;;;;;;;1.70;1.60;;;;;;;;;;4988335;28;20217;-83
2022/07/03 03:37:24;;;;;;;2.27;1.60;;;;;;;;;;4989889;28;20208;-83
2022/07/03 03:39:49;;;;;;;1.50;1.40;;;;;;;;;;4990641;28;20183;-84
2022/07/03 03:42:14;;;;;;;1.70;1.60;;;;;;;;;;4998090;28;20187;-83
2022/07/03 03:44:39;;;;;;;1.60;1.50;;;;;;;;;;4991702;28;20180;-83
2022/07/03 03:47:05;;;;;;;1.40;1.30;;;;;;;;;;4991138;28;20177;-83
2022/07/03 03:49:30;;;;;;;1.60;1.50;;;;;;;;;;4991097;28;20183;-83
2022/07/03 03:51:56;;;;;;;1.57;1.43;;;;;;;;;;4992400;28;20246;-83
2022/07/03 03:54:21;;;;;;;1.57;1.47;;;;;;;;;;4990452;28;20218;-84
2022/07/03 03:56:46;;;;;;;1.70;1.40;;;;;;;;;;4993025;28;20169;-84
2022/07/03 03:59:12;;;;;;;3.27;1.83;;;;;;;;;;4991882;28;20243;-83
2022/07/03 04:01:37;;;;;;;3.57;1.50;;;;;;;;;;4992099;28;20230;-84
2022/07/03 04:04:02;;;;;;;1.50;1.40;;;;;;;;;;4992303;28;20174;-83
2022/07/03 04:06:27;;;;;;;2.07;1.97;;;;;;;;;;4997689;28;20190;-83
2022/07/03 04:08:53;;;;;;;1.60;1.50;;;;;;;;;;4987785;28;20184;-83
2022/07/03 04:11:18;;;;;;;1.47;1.40;;;;;;;;;;4990335;28;20184;-83
2022/07/03 04:13:45;;;;;;;1.50;1.40;;;;;;;;;;4993926;28;20272;-83
2022/07/03 04:16:10;;;;;;;3.17;1.67;;;;;;;;;;4987145;28;20180;-83
2022/07/03 04:18:36;;;;;;;1.50;1.40;;;;;;;;;;4991584;28;20183;-83
2022/07/03 04:21:01;;;;;;;1.90;1.80;;;;;;;;;;4995756;28;20179;-83
2022/07/03 04:23:26;;;;;;;1.47;1.37;;;;;;;;;;4993850;28;20185;-84
2022/07/03 04:25:51;;;;;;;1.83;1.60;;;;;;;;;;4990066;28;20432;-83
2022/07/03 04:28:17;;;;;;;2.03;1.83;;;;;;;;;;4989372;28;20189;-83
2022/07/03 04:30:44;;;;;;;1.70;1.60;;;;;;;;;;4988851;28;20446;-83
2022/07/03 04:33:10;;;;;;;1.60;1.50;;;;;;;;;;4988804;28;20279;-83
2022/07/03 04:35:35;;;;;;;1.77;1.67;;;;;;;;;;4994315;28;20320;-83
2022/07/03 04:38:00;;;;;;;1.50;1.40;;;;;;;;;;4987736;28;20216;-83
2022/07/03 04:40:26;;;;;;;1.97;1.20;;;;;;;;;;4990488;28;20211;-82
2022/07/03 04:42:51;;;;;;;1.60;1.50;;;;;;;;;;4985048;28;20182;-83
2022/07/03 04:45:16;;;;;;;1.50;1.40;;;;;;;;;;4987461;28;20185;-83
2022/07/03 04:47:41;;;;;;;1.90;1.70;;;;;;;;;;4986719;28;20184;-83
2022/07/03 04:50:07;;;;;;;1.80;1.70;;;;;;;;;;4992390;28;20171;-83
2022/07/03 04:52:32;;;;;;;1.73;1.63;;;;;;;;;;4990864;28;20216;-83
2022/07/03 04:54:57;;;;;;;1.60;1.50;;;;;;;;;;4985785;28;20210;-83
2022/07/03 04:57:23;;;;;;;1.43;1.33;;;;;;;;;;4988674;28;20264;-83
2022/07/03 04:59:48;;;;;;;1.90;1.40;;;;;;;;;;4989426;28;20198;-83
2022/07/03 05:02:13;;;;;;;1.70;1.60;;;;;;;;;;4992859;28;20178;-83
2022/07/03 05:04:41;;;;;;;1.63;1.53;;;;;;;;;;4993497;28;20246;-83
2022/07/03 05:07:06;;;;;;;2.67;1.63;;;;;;;;;;4991747;28;20182;-82
2022/07/03 05:09:31;;;;;;;1.70;1.60;;;;;;;;;;4995017;28;20187;-83
2022/07/03 05:11:56;;;;;;;1.47;1.30;;;;;;;;;;4991910;28;20279;-83
2022/07/03 05:14:22;;;;;;;1.40;1.30;;;;;;;;;;4997011;28;20282;-83
2022/07/03 05:16:47;;;;;;;1.40;1.30;;;;;;;;;;4990353;28;20182;-83
2022/07/03 05:19:12;;;;;;;3.03;1.30;;;;;;;;;;4994050;28;20195;-83
2022/07/03 05:21:38;;;;;;;1.50;1.40;;;;;;;;;;4992372;28;20323;-84
2022/07/03 05:24:03;;;;;;;1.40;1.30;;;;;;;;;;4994392;28;20184;-83
2022/07/03 05:26:28;;;;;;;1.60;1.23;;;;;;;;;;4994140;28;20194;-83
2022/07/03 05:28:54;;;;;;;1.07;1.07;;;;;;;;;;4992225;28;20179;-84
2022/07/03 05:31:19;;;;;;;1.47;1.30;;;;;;;;;;4998646;28;20228;-83
2022/07/03 05:33:44;;;;;;;1.20;1.10;;;;;;;;;;4991408;28;20205;-84
2022/07/03 05:36:09;;;;;;;4.67;2.10;;;;;;;;;;4994436;28;20273;-84
2022/07/03 05:41:18;;;;;;;1.20;1.10;;;;;;;;;;4993005;28;20234;-84
2022/07/03 05:43:44;;;;;;;1.77;1.30;;;;;;;;;;4993019;28;20192;-84
2022/07/03 05:46:09;;;;;;;1.33;1.30;;;;;;;;;;4991896;28;20188;-84
2022/07/03 05:48:34;;;;;;;6.50;1.47;;;;;;;;;;4992568;28;20179;-84
2022/07/03 05:51:00;;;;;;;1.00;1.00;;;;;;;;;;4992147;28;20219;-85
2022/07/03 05:53:25;;;;;;;1.37;1.10;;;;;;;;;;4991516;28;20196;-85
2022/07/03 05:55:50;;;;;;;1.60;1.30;;;;;;;;;;4988446;28;20184;-83
2022/07/03 05:58:15;;;;;;;1.23;1.17;;;;;;;;;;4990479;28;20246;-83
2022/07/03 06:00:41;;;;;;;1.53;1.30;;;;;;;;;;4992215;28;20227;-85
2022/07/03 06:03:06;;;;;;;1.00;1.00;;;;;;;;;;4992738;28;20179;-84
2022/07/03 06:05:32;;;;;;;1.30;1.20;;;;;;;;;;4992032;28;20189;-84
2022/07/03 06:07:57;;;;;;;1.07;1.00;;;;;;;;;;4988954;28;20255;-86
2022/07/03 06:10:23;;;;;;;1.53;1.10;;;;;;;;;;4985924;28;20230;-83
2022/07/03 06:12:48;;;;;;;0.87;0.87;;;;;;;;;;4997940;28;20185;-85
2022/07/03 06:15:13;;;;;;;1.03;1.00;;;;;;;;;;4990236;28;20202;-85
2022/07/03 06:17:38;;;;;;;1.20;1.10;;;;;;;;;;4989248;28;20330;-86
2022/07/03 06:20:04;;;;;;;1.10;1.00;;;;;;;;;;4992358;28;20177;-84
2022/07/03 06:22:30;;;;;;;1.20;1.00;;;;;;;;;;4994590;28;20457;-85
2022/07/03 06:24:55;;;;;;;1.93;1.07;;;;;;;;;;4991231;28;20227;-85
2022/07/03 06:27:20;;;;;;;0.80;0.80;;;;;;;;;;4999534;28;20190;-83
2022/07/03 06:29:45;;;;;;;4.03;1.10;;;;;;;;;;4988753;28;20181;-85
2022/07/03 06:32:11;;;;;;;1.43;1.20;;;;;;;;;;4984534;28;20242;-86
2022/07/03 06:34:36;;;;;;;1.73;1.20;;;;;;;;;;4999301;28;20198;-85
2022/07/03 06:37:01;;;;;;;1.30;1.20;;;;;;;;;;4994621;28;20198;-85
2022/07/03 06:39:26;;;;;;;0.97;0.97;;;;;;;;;;4992059;28;20254;-85
2022/07/03 06:41:51;;;;;;;1.90;1.17;;;;;;;;;;4992091;28;20173;-86
2022/07/03 06:44:17;;;;;;;1.30;1.20;;;;;;;;;;4992323;28;20201;-84
2022/07/03 06:46:42;;;;;;;2.53;1.27;;;;;;;;;;4996683;28;20324;-87
2022/07/03 06:49:07;;;;;;;1.23;1.13;;;;;;;;;;4985519;28;20186;-86
2022/07/03 06:51:33;;;;;;;1.20;1.10;;;;;;;;;;4990792;28;20186;-84
2022/07/03 06:53:59;;;;;;;2.17;1.30;;;;;;;;;;4990807;28;20201;-86
2022/07/03 06:56:24;;;;;;;1.27;1.17;;;;;;;;;;4994504;28;20182;-85
2022/07/03 06:58:49;;;;;;;1.20;1.10;;;;;;;;;;4991089;28;20183;-86
2022/07/03 07:01:14;;;;;;;1.40;1.30;;;;;;;;;;4994932;28;20250;-86
2022/07/03 07:03:39;;;;;;;2.73;1.30;;;;;;;;;;4993553;28;20194;-85
2022/07/03 07:06:05;;;;;;;2.07;1.77;;;;;;;;;;4990380;28;20181;-86
2022/07/03 07:08:30;;;;;;;1.43;1.33;;;;;;;;;;4993863;28;20238;-87
2022/07/03 07:10:55;;;;;;;1.20;1.20;;;;;;;;;;4990681;28;20238;-85
2022/07/03 07:13:20;;;;;;;1.20;1.10;;;;;;;;;;4990639;28;20194;-86
2022/07/03 07:15:45;;;;;;;1.27;1.20;;;;;;;;;;4984923;28;20193;-85
2022/07/03 07:18:11;;;;;;;1.10;1.10;;;;;;;;;;4988491;28;20172;-87
2022/07/03 07:20:36;;;;;;;1.17;1.07;;;;;;;;;;4985192;28;20168;-86
2022/07/03 07:23:01;;;;;;;1.03;1.03;;;;;;;;;;4989992;28;20169;-85
2022/07/03 07:25:26;;;;;;;1.07;1.00;;;;;;;;;;4986690;28;20182;-86
2022/07/03 07:27:52;;;;;;;1.00;1.00;;;;;;;;;;4993966;28;20173;-86
2022/07/03 07:30:19;;;;;;;1.57;1.20;;;;;;;;;;4988332;28;20191;-88
2022/07/03 07:32:44;;;;;;;1.93;1.00;;;;;;;;;;4987410;28;20253;-87
2022/07/03 07:35:10;;;;;;;1.40;1.30;;;;;;;;;;4989938;28;20241;-87
2022/07/03 07:37:35;;;;;;;1.07;1.07;;;;;;;;;;4991306;28;20216;-87
2022/07/03 07:40:00;;;;;;;2.70;1.30;;;;;;;;;;4989980;28;20182;-87
2022/07/03 07:42:27;;;;;;;1.13;1.13;;;;;;;;;;4989282;28;20189;-88
2022/07/03 07:44:53;;;;;;;1.60;1.13;;;;;;;;;;4991371;28;21138;-87
2022/07/03 07:47:18;;;;;;;1.17;1.17;;;;;;;;;;4993336;28;20197;-86
2022/07/03 07:49:43;;;;;;;1.93;1.30;;;;;;;;;;4996830;28;20184;-86
2022/07/03 07:52:08;;;;;;;2.77;1.40;;;;;;;;;;4990009;28;20240;-86
2022/07/03 07:54:34;;;;;;;1.50;1.40;;;;;;;;;;4988333;28;20206;-88
2022/07/03 07:56:59;;;;;;;1.40;1.30;;;;;;;;;;4988796;28;20179;-86
2022/07/03 07:59:24;;;;;;;0.97;0.97;;;;;;;;;;4992860;28;20188;-85
2022/07/03 08:07:17;;;;;;;0.90;0.90;;;;;;;;;;4988647;28;20200;-88
2022/07/03 08:09:42;;;;;;;0.90;0.90;;;;;;;;;;4986452;28;20177;-86
2022/07/03 08:12:08;;;;;;;1.20;1.10;;;;;;;;;;4988950;28;20248;-88
2022/07/03 08:14:33;;;;;;;0.97;0.97;;;;;;;;;;4989815;28;20196;-89
2022/07/03 08:16:58;;;;;;;0.93;0.93;;;;;;;;;;4991982;28;20327;-86
2022/07/03 08:19:23;;;;;;;1.10;1.00;;;;;;;;;;4994512;28;20203;-88
2022/07/03 08:21:49;;;;;;;1.13;1.03;;;;;;;;;;4993484;28;20219;-88
2022/07/03 08:24:16;;;;;;;1.10;1.00;;;;;;;;;;4989623;28;20271;-88
2022/07/03 08:26:41;;;;;;;1.43;1.13;;;;;;;;;;4989458;28;20187;-87
2022/07/03 08:29:06;;;;;;;1.67;1.20;;;;;;;;;;5001906;28;20189;-87
2022/07/03 08:31:32;;;;;;;0.93;0.87;;;;;;;;;;4991935;28;20227;-87
2022/07/03 08:33:57;;;;;;;0.87;0.87;;;;;;;;;;4989311;28;20342;-87
2022/07/03 08:36:22;;;;;;;5.60;1.00;;;;;;;;;;4987036;28;20212;-87
2022/07/03 08:38:47;;;;;;;1.13;1.03;;;;;;;;;;4990866;28;20174;-87
2022/07/03 08:41:14;;;;;;;2.37;1.10;;;;;;;;;;4992060;28;20215;-89
2022/07/03 08:43:41;;;;;;;1.03;1.00;;;;;;;;;;4991497;28;20276;-87
2022/07/03 08:46:06;;;;;;;1.20;1.00;;;;;;;;;;4993966;28;20258;-87
2022/07/03 08:48:33;;;;;;;1.23;1.13;;;;;;;;;;4989017;28;20370;-88
2022/07/03 08:51:00;;;;;;;1.40;1.20;;;;;;;;;;4989502;28;20243;-88
2022/07/03 08:53:25;;;;;;;1.30;1.10;;;;;;;;;;4986237;28;21625;-87
2022/07/03 08:55:51;;;;;;;1.33;1.00;;;;;;;;;;4990620;28;20194;-85
2022/07/03 08:58:19;;;;;;;0.77;0.77;;;;;;;;;;4986491;28;20182;-89
2022/07/03 09:00:44;;;;;;;1.25;1.15;;;;;;;;;;4990688;28;20184;-87
2022/07/03 09:03:10;;;;;;;1.75;1.65;;;;;;;;;;4989725;28;20184;-89
2022/07/03 09:05:36;;;;;;;0.90;0.90;;;;;;;;;;4985161;28;20550;-88
2022/07/03 09:08:02;;;;;;;1.20;1.10;;;;;;;;;;4990216;28;20184;-90
2022/07/03 09:10:27;;;;;;;0.90;0.90;;;;;;;;;;4989517;28;20246;-88
2022/07/03 09:12:53;;;;;;;1.92;1.00;;;;;;;;;;4989957;28;20172;-89
2022/07/03 09:15:18;;;;;;;0.93;0.93;;;;;;;;;;4990668;28;20196;-90
2022/07/03 09:17:57;;;;;;;1.10;1.10;;;;;;;;;;4989092;28;20271;-89
2022/07/03 09:20:27;;;;;;;1.23;1.13;;;;;;;;;;4990604;28;20184;-89
2022/07/03 09:22:52;;;;;;;1.30;1.20;;;;;;;;;;4988445;28;20287;-91
2022/07/03 09:25:17;;;;;;;1.25;1.13;;;;;;;;;;4985909;28;20458;-88
2022/07/03 09:27:50;;;;;;;1.00;0.98;;;;;;;;;;4986653;28;20177;-87
2022/07/03 09:30:15;;;;;;;0.85;0.85;;;;;;;;;;4989969;28;20176;-88
2022/07/03 09:32:44;;;;;;;1.35;1.13;;;;;;;;;;4989843;28;20234;-89
2022/07/03 09:35:28;;;;;;;2.30;1.10;;;;;;;;;;4988293;28;20295;-89
2022/07/03 09:37:54;;;;;;;2.03;1.38;;;;;;;;;;4989528;28;20206;-91
2022/07/03 09:40:19;;;;;;;0.88;0.88;;;;;;;;;;4985450;28;20188;-89
2022/07/03 09:43:04;;;;;;;1.25;1.13;;;;;;;;;;4988538;28;20180;-88
2022/07/03 09:45:52;;;;;;;1.00;1.00;;;;;;;;;;4989284;28;20536;-91
2022/07/03 09:48:21;;;;;;;1.30;1.00;;;;;;;;;;4978480;28;20195;-89
2022/07/03 09:50:46;;;;;;;1.35;1.25;;;;;;;;;;4990376;28;20180;-88
2022/07/03 09:53:12;;;;;;;1.17;1.17;;;;;;;;;;4994878;28;20190;-88
2022/07/03 09:55:37;;;;;;;1.40;1.30;;;;;;;;;;4992800;28;20224;-91
2022/07/03 09:58:02;;;;;;;2.65;1.30;;;;;;;;;;4991823;28;20177;-89
2022/07/03 10:00:29;;;;;;;1.08;1.08;;;;;;;;;;4991183;28;20234;-89
2022/07/03 10:03:00;;;;;;;1.13;1.10;;;;;;;;;;4988630;28;20181;-90
2022/07/03 10:05:29;;;;;;;1.33;1.30;;;;;;;;;;4989131;28;20215;-88
2022/07/03 10:07:55;;;;;;;1.30;1.20;;;;;;;;;;4990401;28;20188;-90
2022/07/03 10:10:21;;;;;;;1.40;1.30;;;;;;;;;;4994804;28;20183;-90
2022/07/03 10:12:51;;;;;;;2.22;1.10;;;;;;;;;;4991332;28;20180;-86
2022/07/03 10:15:16;;;;;;;1.23;1.13;;;;;;;;;;4989977;28;20219;-90
2022/07/03 10:17:46;;;;;;;1.10;0.98;;;;;;;;;;4990371;28;20177;-88
2022/07/03 10:20:15;;;;;;;1.55;1.45;;;;;;;;;;4988478;28;20182;-90
2022/07/03 10:22:46;;;;;;;1.35;1.10;;;;;;;;;;4996767;28;20222;-91
2022/07/03 10:25:12;;;;;;;1.90;1.30;;;;;;;;;;4988503;28;20188;-88
2022/07/03 10:27:38;;;;;;;3.38;1.10;;;;;;;;;;4994150;28;20392;-92
2022/07/03 10:30:03;;;;;;;3.08;1.20;;;;;;;;;;4990772;28;20271;-90
2022/07/03 10:32:29;;;;;;;1.20;1.20;;;;;;;;;;4990149;28;20231;-88
2022/07/03 10:34:54;;;;;;;1.20;1.20;;;;;;;;;;4989988;28;20215;-89
2022/07/03 10:37:21;;;;;;;1.67;1.25;;;;;;;;;;4994794;28;20200;-91
2022/07/03 10:39:52;;;;;;;1.30;1.20;;;;;;;;;;4981646;28;20396;-81
2022/07/03 10:45:07;;;;;;;1.58;1.48;;;;;;;;;;4986031;28;20186;-90
2022/07/03 10:47:41;;;;;;;2.15;1.20;;;;;;;;;;4986012;28;20199;-91
2022/07/03 10:50:08;;;;;;;1.15;1.10;;;;;;;;;;4983190;28;20190;-88
2022/07/03 10:52:33;;;;;;;1.55;1.20;;;;;;;;;;4987079;28;20195;-89
2022/07/03 10:54:59;;;;;;;2.13;1.50;;;;;;;;;;4990195;28;20223;-88
2022/07/03 10:57:25;;;;;;;1.50;1.20;;;;;;;;;;4992142;28;20259;-87
2022/07/03 10:59:51;;;;;;;1.30;1.20;;;;;;;;;;4989246;28;20215;-85
2022/07/03 11:02:22;;;;;;;1.40;1.30;;;;;;;;;;4992522;28;20215;-90
2022/07/03 11:05:03;;;;;;;4.05;1.20;;;;;;;;;;4989821;28;20180;-90
2022/07/03 11:07:28;;;;;;;1.35;1.25;;;;;;;;;;4985733;28;20247;-91
2022/07/03 11:10:05;;;;;;;2.83;1.40;;;;;;;;;;4985432;28;20184;-88
2022/07/03 11:12:49;;;;;;;1.38;1.30;;;;;;;;;;4988482;28;20188;-89
2022/07/03 11:15:34;;;;;;;1.88;1.70;;;;;;;;;;4994163;28;20212;-91
2022/07/03 11:20:43;;;;;;;1.38;1.27;;;;;;;;;;4991031;28;20276;-91
2022/07/03 11:23:14;;;;;;;4.55;1.38;;;;;;;;;;4989153;28;20172;-90
2022/07/03 11:25:43;;;;;;;1.30;1.17;;;;;;;;;;4987608;28;20180;-91
2022/07/03 11:28:28;;;;;;;2.47;1.20;;;;;;;;;;4990527;28;20176;-91
2022/07/03 11:31:13;;;;;;;1.40;1.30;;;;;;;;;;4986143;28;20267;-88
2022/07/03 11:33:41;;;;;;;1.58;1.40;;;;;;;;;;5007043;28;20195;-86
2022/07/03 11:36:09;;;;;;;1.45;1.30;;;;;;;;;;4989129;28;20202;-85
2022/07/03 11:38:35;;;;;;;1.55;1.45;;;;;;;;;;5007521;28;20173;-90
2022/07/03 11:41:00;;;;;;;3.55;1.30;;;;;;;;;;4990456;28;20187;-91
2022/07/03 11:43:26;;;;;;;1.45;1.35;;;;;;;;;;4986165;28;20188;-91
2022/07/03 11:45:51;;;;;;;2.78;1.30;;;;;;;;;;4986956;28;20176;-90
2022/07/03 11:48:18;;;;;;;1.10;1.10;;;;;;;;;;5010284;28;20267;-91
2022/07/03 11:50:46;;;;;;;1.30;1.20;;;;;;;;;;4990941;28;20176;-91
2022/07/03 11:53:15;;;;;;;1.73;1.20;;;;;;;;;;4988302;28;20176;-87
2022/07/03 11:55:50;;;;;;;1.60;1.42;;;;;;;;;;4987850;28;20215;-88
2022/07/03 11:58:16;;;;;;;1.65;1.55;;;;;;;;;;4988922;28;20211;-90
2022/07/03 12:00:41;;;;;;;1.48;1.38;;;;;;;;;;4987614;28;20223;-90
2022/07/03 12:03:07;;;;;;;3.53;1.30;;;;;;;;;;4986387;28;20180;-89
2022/07/03 12:05:32;;;;;;;1.20;1.10;;;;;;;;;;4992261;28;20183;-91
2022/07/03 12:08:02;;;;;;;2.40;1.50;;;;;;;;;;4992584;28;20182;-90
2022/07/03 12:10:37;;;;;;;2.85;1.30;;;;;;;;;;4987374;28;20187;-90
2022/07/03 12:13:02;;;;;;;1.50;1.40;;;;;;;;;;4985428;28;20192;-88
2022/07/03 12:15:28;;;;;;;1.63;1.40;;;;;;;;;;4988373;28;20258;-91
2022/07/03 12:17:53;;;;;;;3.10;1.42;;;;;;;;;;4985476;28;20180;-89
2022/07/03 12:20:18;;;;;;;2.08;1.35;;;;;;;;;;4990130;28;20191;-90
2022/07/03 12:22:44;;;;;;;2.72;1.83;;;;;;;;;;4989680;28;20259;-90
2022/07/03 12:25:10;;;;;;;2.72;1.80;;;;;;;;;;4984805;28;20291;-90
2022/07/03 12:27:40;;;;;;;1.88;1.50;;;;;;;;;;4988587;28;20176;-89
2022/07/03 12:30:06;;;;;;;1.40;1.30;;;;;;;;;;4987851;28;20326;-88
2022/07/03 12:32:31;;;;;;;1.52;1.40;;;;;;;;;;4981682;28;20513;-90
2022/07/03 12:34:56;;;;;;;1.58;1.30;;;;;;;;;;4986961;28;20254;-90
2022/07/03 12:37:31;;;;;;;1.60;1.10;;;;;;;;;;4989836;28;20196;-88
2022/07/03 12:39:59;;;;;;;1.42;1.20;;;;;;;;;;4989015;28;20259;-90
2022/07/03 12:42:24;;;;;;;1.38;1.13;;;;;;;;;;4989564;28;20184;-91
2022/07/03 12:45:00;;;;;;;1.77;1.40;;;;;;;;;;4990259;28;20261;-90
2022/07/03 12:47:25;;;;;;;1.45;1.35;;;;;;;;;;4989278;28;20179;-89
2022/07/03 12:50:04;;;;;;;1.35;1.25;;;;;;;;;;4983151;28;20180;-89
2022/07/03 12:52:30;;;;;;;2.45;1.50;;;;;;;;;;4982078;28;20183;-87
2022/07/03 12:54:55;;;;;;;2.15;1.40;;;;;;;;;;4988009;28;20207;-91
2022/07/03 13:00:06;;;;;;;1.50;1.40;;;;;;;;;;4989193;28;20270;-90
2022/07/03 13:02:32;;;;;;;1.60;1.50;;;;;;;;;;4987573;28;20200;-89
2022/07/03 13:04:59;;;;;;;1.38;1.27;;;;;;;;;;4990881;28;20180;-89
2022/07/03 13:07:27;;;;;;;1.23;1.13;;;;;;;;;;4990502;28;20319;-90
2022/07/03 13:09:53;;;;;;;1.38;1.27;;;;;;;;;;4985297;28;20192;-90
2022/07/03 13:12:24;;;;;;;1.50;1.40;;;;;;;;;;4990429;28;20180;-90
2022/07/03 13:14:56;;;;;;;1.73;1.40;;;;;;;;;;4980134;28;20204;-88
2022/07/03 13:17:21;;;;;;;4.25;1.27;;;;;;;;;;4987803;28;20180;-91
2022/07/03 13:19:47;;;;;;;2.90;1.30;;;;;;;;;;4989374;28;20290;-91
2022/07/03 13:22:12;;;;;;;1.20;1.15;;;;;;;;;;4986835;28;20238;-91
2022/07/03 13:24:42;;;;;;;1.50;1.20;;;;;;;;;;4994484;28;20207;-89
2022/07/03 13:27:08;;;;;;;1.42;1.30;;;;;;;;;;5217092;23;20300;-90
2022/07/03 13:29:34;;;;;;;0.90;0.90;;;;;;;;;;4974654;28;20275;-89
2022/07/03 13:31:59;;;;;;;1.50;1.40;;;;;;;;;;4957676;28;20190;-88
2022/07/03 13:34:24;;;;;;;1.40;1.30;;;;;;;;;;4963060;28;20244;-89
2022/07/03 13:36:50;;;;;;;2.03;1.55;;;;;;;;;;4971350;28;20201;-88
2022/07/03 13:39:15;;;;;;;2.17;1.08;;;;;;;;;;4977779;28;20191;-89
2022/07/03 13:41:40;;;;;;;1.38;1.20;;;;;;;;;;4976093;28;20217;-90
2022/07/03 13:44:05;;;;;;;1.70;1.02;;;;;;;;;;4975066;28;20216;-85
2022/07/03 13:46:31;;;;;;;3.10;1.25;;;;;;;;;;4973861;28;20180;-89
2022/07/03 13:48:56;;;;;;;3.70;1.10;;;;;;;;;;4981028;28;20236;-90
2022/07/03 13:51:21;;;;;;;1.67;1.45;;;;;;;;;;4970006;28;20236;-90
2022/07/03 13:53:47;;;;;;;1.70;1.60;;;;;;;;;;4969040;28;20439;-88
2022/07/03 13:56:21;;;;;;;2.55;1.30;;;;;;;;;;4978483;28;20173;-89
2022/07/03 13:58:47;;;;;;;2.97;1.20;;;;;;;;;;4970007;28;20184;-90
2022/07/03 14:01:12;;;;;;;1.30;1.20;;;;;;;;;;4956327;28;20235;-91
2022/07/03 14:03:37;;;;;;;3.85;1.60;;;;;;;;;;4973411;28;20180;-89
2022/07/03 14:06:02;;;;;;;1.35;1.25;;;;;;;;;;4969442;28;20195;-90
2022/07/03 14:08:28;;;;;;;2.92;1.30;;;;;;;;;;4974221;28;20183;-91
2022/07/03 14:10:53;;;;;;;1.33;1.23;;;;;;;;;;4975362;28;20215;-88
2022/07/03 14:13:19;;;;;;;1.88;1.52;;;;;;;;;;4974013;28;20173;-88
2022/07/03 14:15:45;;;;;;;1.50;1.40;;;;;;;;;;4970720;28;20208;-86
2022/07/03 14:18:10;;;;;;;1.60;1.35;;;;;;;;;;4972131;28;20177;-90
2022/07/03 14:20:35;;;;;;;3.60;1.25;;;;;;;;;;4974499;28;20181;-88
2022/07/03 14:23:01;;;;;;;4.13;1.10;;;;;;;;;;4968364;28;20185;-90
2022/07/03 14:25:29;;;;;;;1.30;1.20;;;;;;;;;;4975649;28;20238;-88
2022/07/03 14:33:42;;;;;;;1.50;1.40;;;;;;;;;;4887461;29;20187;-88
2022/07/03 14:36:07;;;;;;;1.30;1.20;;;;;;;;;;4876158;29;20186;-91
2022/07/03 14:38:32;;;;;;;3.95;1.27;;;;;;;;;;4922129;28;20251;-89
2022/07/03 14:40:57;;;;;;;2.25;1.15;;;;;;;;;;4969214;28;20201;-91
2022/07/03 14:43:23;;;;;;;2.75;1.38;;;;;;;;;;4970498;28;20173;-89
2022/07/03 14:45:48;;;;;;;1.27;1.17;;;;;;;;;;4976021;28;20312;-88
2022/07/03 14:48:13;;;;;;;1.33;1.23;;;;;;;;;;4979191;28;20243;-89
2022/07/03 14:50:38;;;;;;;2.15;1.23;;;;;;;;;;4968683;28;20248;-91
2022/07/03 14:53:06;;;;;;;1.52;1.25;;;;;;;;;;4973438;28;20181;-90
2022/07/03 14:55:32;;;;;;;2.17;1.20;;;;;;;;;;4970333;28;20199;-88
2022/07/03 14:58:04;;;;;;;3.03;1.33;;;;;;;;;;4966520;28;20180;-90
2022/07/03 15:00:29;;;;;;;2.85;1.30;;;;;;;;;;4969388;28;20176;-86
2022/07/03 15:03:08;;;;;;;3.08;1.35;;;;;;;;;;4971517;28;20177;-88
2022/07/03 15:05:34;;;;;;;1.30;1.20;;;;;;;;;;4961120;28;20187;-89